sensor_id;sensor_type;location;lat;lon;timestamp;pressure;altitude;pressure_sealevel;temperature;humidity
60170;BME280;46042;49.444;6.862;2022-12-07T00:01:37;98874.94;;;0.97;100.00
60170;BME280;46042;49.444;6.862;2022-12-07T00:04:09;98876.06;;;0.87;100.00
60170;BME280;46042;49.444;6.862;2022-12-07T00:06:41;98875.19;;;0.88;100.00
60170;BME280;46042;49.444;6.862;2022-12-07T00:09:14;98864.81;;;0.88;100.00
60170;BME280;46042;49.444;6.862;2022-12-07T00:11:42;98866.44;;;0.92;100.00
60170;BME280;46042;49.444;6.862;2022-12-07T00:14:14;98861.19;;;0.94;100.00
60170;BME280;46042;49.444;6.862;2022-12-07T00:16:42;98858.59;;;0.94;100.00
60170;BME280;46042;49.444;6.862;2022-12-07T00:19:10;98870.69;;;0.95;100.00
60170;BME280;46042;49.444;6.862;2022-12-07T00:21:37;98862.06;;;0.93;100.00
60170;BME280;46042;49.444;6.862;2022-12-07T00:24:05;98857.69;;;0.96;100.00
60170;BME280;46042;49.444;6.862;2022-12-07T00:26:37;98854.28;;;0.94;100.00
60170;BME280;46042;49.444;6.862;2022-12-07T00:29:07;98864.66;;;0.94;100.00
60170;BME280;46042;49.444;6.862;2022-12-07T00:31:36;98868.28;;;0.87;100.00
60170;BME280;46042;49.444;6.862;2022-12-07T00:34:07;98863.84;;;0.91;100.00
60170;BME280;46042;49.444;6.862;2022-12-07T00:36:34;98858.66;;;0.91;100.00
60170;BME280;46042;49.444;6.862;2022-12-07T00:39:01;98850.94;;;0.89;100.00
60170;BME280;46042;49.444;6.862;2022-12-07T00:41:29;98857.06;;;0.85;100.00
60170;BME280;46042;49.444;6.862;2022-12-07T00:43:57;98867.50;;;0.82;100.00
60170;BME280;46042;49.444;6.862;2022-12-07T00:46:24;98869.22;;;0.83;100.00
60170;BME280;46042;49.444;6.862;2022-12-07T00:48:51;98857.91;;;0.87;100.00
60170;BME280;46042;49.444;6.862;2022-12-07T00:51:21;98864.00;;;0.84;100.00
60170;BME280;46042;49.444;6.862;2022-12-07T00:53:48;98865.78;;;0.82;100.00
60170;BME280;46042;49.444;6.862;2022-12-07T00:56:26;98868.31;;;0.84;100.00
60170;BME280;46042;49.444;6.862;2022-12-07T00:59:01;98854.53;;;0.82;100.00
60170;BME280;46042;49.444;6.862;2022-12-07T01:01:34;98858.09;;;0.79;100.00
60170;BME280;46042;49.444;6.862;2022-12-07T01:04:01;98849.34;;;0.82;100.00
60170;BME280;46042;49.444;6.862;2022-12-07T01:06:28;98850.31;;;0.78;100.00
60170;BME280;46042;49.444;6.862;2022-12-07T01:08:55;98846.03;;;0.75;100.00
60170;BME280;46042;49.444;6.862;2022-12-07T01:11:25;98844.31;;;0.76;100.00
60170;BME280;46042;49.444;6.862;2022-12-07T01:13:54;98843.63;;;0.67;100.00
60170;BME280;46042;49.444;6.862;2022-12-07T01:16:22;98844.47;;;0.69;100.00
60170;BME280;46042;49.444;6.862;2022-12-07T01:18:51;98839.22;;;0.73;100.00
60170;BME280;46042;49.444;6.862;2022-12-07T01:21:27;98846.91;;;0.77;100.00
60170;BME280;46042;49.444;6.862;2022-12-07T01:23:56;98846.91;;;0.77;100.00
60170;BME280;46042;49.444;6.862;2022-12-07T01:26:24;98845.13;;;0.78;100.00
60170;BME280;46042;49.444;6.862;2022-12-07T01:28:51;98852.13;;;0.74;100.00
60170;BME280;46042;49.444;6.862;2022-12-07T01:31:23;98859.88;;;0.76;100.00
60170;BME280;46042;49.444;6.862;2022-12-07T01:33:52;98851.22;;;0.77;100.00
60170;BME280;46042;49.444;6.862;2022-12-07T01:36:26;98848.69;;;0.74;100.00
60170;BME280;46042;49.444;6.862;2022-12-07T01:38:58;98848.72;;;0.72;100.00
60170;BME280;46042;49.444;6.862;2022-12-07T01:41:28;98852.19;;;0.73;100.00
60170;BME280;46042;49.444;6.862;2022-12-07T01:44:20;98852.25;;;0.69;100.00
60170;BME280;46042;49.444;6.862;2022-12-07T01:49:42;98848.69;;;0.74;100.00
60170;BME280;46042;49.444;6.862;2022-12-07T01:52:29;98854.69;;;0.76;100.00
60170;BME280;46042;49.444;6.862;2022-12-07T01:55:01;98852.13;;;0.74;100.00
60170;BME280;46042;49.444;6.862;2022-12-07T01:57:30;98846.00;;;0.78;100.00
60170;BME280;46042;49.444;6.862;2022-12-07T01:59:59;98845.06;;;0.81;100.00
60170;BME280;46042;49.444;6.862;2022-12-07T02:02:31;98830.44;;;0.78;100.00
60170;BME280;46042;49.444;6.862;2022-12-07T02:05:01;98835.50;;;0.83;100.00
60170;BME280;46042;49.444;6.862;2022-12-07T02:07:29;98845.00;;;0.84;100.00
60170;BME280;46042;49.444;6.862;2022-12-07T02:09:56;98842.44;;;0.82;100.00
60170;BME280;46042;49.444;6.862;2022-12-07T02:12:23;98838.91;;;0.85;100.00
60170;BME280;46042;49.444;6.862;2022-12-07T02:14:51;98843.28;;;0.83;100.00
60170;BME280;46042;49.444;6.862;2022-12-07T02:17:25;98837.19;;;0.85;100.00
60170;BME280;46042;49.444;6.862;2022-12-07T02:20:13;98834.50;;;0.90;100.00
60170;BME280;46042;49.444;6.862;2022-12-07T02:23:27;98825.75;;;0.94;100.00
60170;BME280;46042;49.444;6.862;2022-12-07T02:32:13;98819.00;;;0.87;100.00
60170;BME280;46042;49.444;6.862;2022-12-07T02:34:50;98813.88;;;0.84;100.00
60170;BME280;46042;49.444;6.862;2022-12-07T02:37:37;98807.75;;;0.88;100.00
60170;BME280;46042;49.444;6.862;2022-12-07T02:42:44;98818.03;;;0.91;100.00
60170;BME280;46042;49.444;6.862;2022-12-07T02:45:14;98810.19;;;0.94;100.00
60170;BME280;46042;49.444;6.862;2022-12-07T02:47:43;98810.16;;;0.96;100.00
60170;BME280;46042;49.444;6.862;2022-12-07T02:50:10;98804.06;;;0.97;100.00
60170;BME280;46042;49.444;6.862;2022-12-07T02:52:37;98811.84;;;0.97;100.00
60170;BME280;46042;49.444;6.862;2022-12-07T02:55:04;98814.47;;;0.95;100.00
60170;BME280;46042;49.444;6.862;2022-12-07T02:57:45;98816.28;;;0.92;100.00
60170;BME280;46042;49.444;6.862;2022-12-07T03:00:16;98814.50;;;0.94;100.00
60170;BME280;46042;49.444;6.862;2022-12-07T03:02:53;98812.69;;;0.97;100.00
60170;BME280;46042;49.444;6.862;2022-12-07T03:08:44;98810.00;;;1.01;100.00
60170;BME280;46042;49.444;6.862;2022-12-07T03:10:56;98816.06;;;1.01;100.00
60170;BME280;46042;49.444;6.862;2022-12-07T03:18:38;98811.06;;;0.93;100.00
60170;BME280;46042;49.444;6.862;2022-12-07T03:21:13;98803.22;;;0.96;100.00
60170;BME280;46042;49.444;6.862;2022-12-07T03:23:42;98802.38;;;0.96;100.00
60170;BME280;46042;49.444;6.862;2022-12-07T03:26:12;98803.25;;;0.95;100.00
60170;BME280;46042;49.444;6.862;2022-12-07T03:28:45;98803.25;;;0.95;100.00
60170;BME280;46042;49.444;6.862;2022-12-07T03:31:28;98800.78;;;0.89;100.00
60170;BME280;46042;49.444;6.862;2022-12-07T03:34:08;98798.25;;;0.87;100.00
60170;BME280;46042;49.444;6.862;2022-12-07T03:36:51;98807.75;;;0.87;100.00
60170;BME280;46042;49.444;6.862;2022-12-07T03:39:31;98799.16;;;0.84;100.00
60170;BME280;46042;49.444;6.862;2022-12-07T03:42:02;98800.94;;;0.82;100.00
60170;BME280;46042;49.444;6.862;2022-12-07T03:44:31;98803.53;;;0.82;100.00
60170;BME280;46042;49.444;6.862;2022-12-07T03:55:02;98797.72;;;0.73;100.00
60170;BME280;46042;49.444;6.862;2022-12-07T03:57:33;98801.94;;;0.77;100.00
60170;BME280;46042;49.444;6.862;2022-12-07T04:00:03;98792.38;;;0.79;100.00
60170;BME280;46042;49.444;6.862;2022-12-07T04:02:30;98788.06;;;0.79;100.00
60170;BME280;46042;49.444;6.862;2022-12-07T04:04:58;98794.94;;;0.80;100.00
60170;BME280;46042;49.444;6.862;2022-12-07T04:07:25;98797.53;;;0.80;100.00
60170;BME280;46042;49.444;6.862;2022-12-07T04:09:51;98795.78;;;0.81;100.00
60170;BME280;46042;49.444;6.862;2022-12-07T04:12:21;98788.78;;;0.84;100.00
60170;BME280;46042;49.444;6.862;2022-12-07T04:14:48;98787.00;;;0.87;100.00
60170;BME280;46042;49.444;6.862;2022-12-07T04:17:15;98791.28;;;0.89;100.00
60170;BME280;46042;49.444;6.862;2022-12-07T04:19:41;98786.91;;;0.91;100.00
60170;BME280;46042;49.444;6.862;2022-12-07T04:22:08;98781.84;;;0.85;100.00
60170;BME280;46042;49.444;6.862;2022-12-07T04:24:35;98788.72;;;0.88;100.00
60170;BME280;46042;49.444;6.862;2022-12-07T04:27:02;98786.94;;;0.90;100.00
60170;BME280;46042;49.444;6.862;2022-12-07T04:29:29;98782.63;;;0.90;100.00
60170;BME280;46042;49.444;6.862;2022-12-07T04:31:55;98790.41;;;0.89;100.00
60170;BME280;46042;49.444;6.862;2022-12-07T04:34:22;98792.94;;;0.92;100.00
60170;BME280;46042;49.444;6.862;2022-12-07T04:36:49;98789.41;;;0.96;100.00
60170;BME280;46042;49.444;6.862;2022-12-07T04:39:29;98785.84;;;0.98;100.00
60170;BME280;46042;49.444;6.862;2022-12-07T04:41:56;98781.47;;;1.01;100.00
60170;BME280;46042;49.444;6.862;2022-12-07T04:44:24;98775.53;;;0.97;100.00
60170;BME280;46042;49.444;6.862;2022-12-07T04:46:51;98785.84;;;0.98;100.00
60170;BME280;46042;49.444;6.862;2022-12-07T04:49:19;98779.75;;;1.01;100.00
60170;BME280;46042;49.444;6.862;2022-12-07T04:51:46;98781.47;;;1.01;100.00
60170;BME280;46042;49.444;6.862;2022-12-07T04:54:14;98778.84;;;1.02;100.00
60170;BME280;46042;49.444;6.862;2022-12-07T04:56:42;98771.25;;;0.96;100.00
60170;BME280;46042;49.444;6.862;2022-12-07T04:59:10;98771.44;;;0.87;100.00
60170;BME280;46042;49.444;6.862;2022-12-07T05:01:37;98768.22;;;0.78;100.00
60170;BME280;46042;49.444;6.862;2022-12-07T05:04:04;98779.22;;;0.87;100.00
60170;BME280;46042;49.444;6.862;2022-12-07T05:06:30;98776.75;;;0.82;100.00
60170;BME280;46042;49.444;6.862;2022-12-07T05:08:57;98778.34;;;0.88;100.00
60170;BME280;46042;49.444;6.862;2022-12-07T05:11:23;98783.50;;;0.89;100.00
60170;BME280;46042;49.444;6.862;2022-12-07T05:14:17;98781.03;;;0.83;100.00
60170;BME280;46042;49.444;6.862;2022-12-07T05:16:46;98778.41;;;0.84;100.00
60170;BME280;46042;49.444;6.862;2022-12-07T05:19:13;98779.97;;;0.92;100.00
60170;BME280;46042;49.444;6.862;2022-12-07T05:21:39;98778.16;;;0.95;100.00
60170;BME280;46042;49.444;6.862;2022-12-07T05:24:08;98779.94;;;0.93;100.00
60170;BME280;46042;49.444;6.862;2022-12-07T05:26:36;98779.84;;;0.96;100.00
60170;BME280;46042;49.444;6.862;2022-12-07T05:29:03;98778.94;;;0.99;100.00
60170;BME280;46042;49.444;6.862;2022-12-07T05:31:30;98780.66;;;1.00;100.00
60170;BME280;46042;49.444;6.862;2022-12-07T05:33:56;98771.06;;;1.04;100.00
60170;BME280;46042;49.444;6.862;2022-12-07T05:36:23;98773.59;;;1.05;100.00
60170;BME280;46042;49.444;6.862;2022-12-07T05:38:49;98779.56;;;1.09;100.00
60170;BME280;46042;49.444;6.862;2022-12-07T05:41:18;98778.66;;;1.10;100.00
60170;BME280;46042;49.444;6.862;2022-12-07T05:44:04;98782.25;;;1.06;100.00
60170;BME280;46042;49.444;6.862;2022-12-07T05:46:31;98773.56;;;1.07;100.00
60170;BME280;46042;49.444;6.862;2022-12-07T05:48:58;98776.06;;;1.10;100.00
60170;BME280;46042;49.444;6.862;2022-12-07T05:51:25;98782.19;;;1.07;100.00
60170;BME280;46042;49.444;6.862;2022-12-07T05:53:51;98771.72;;;1.10;100.00
60170;BME280;46042;49.444;6.862;2022-12-07T05:56:18;98775.16;;;1.12;100.00
60170;BME280;46042;49.444;6.862;2022-12-07T05:58:45;98777.75;;;1.12;100.00
60170;BME280;46042;49.444;6.862;2022-12-07T06:01:30;98778.66;;;1.10;100.00
60170;BME280;46042;49.444;6.862;2022-12-07T06:03:57;98780.41;;;1.09;100.00
60170;BME280;46042;49.444;6.862;2022-12-07T06:06:23;98776.06;;;1.10;100.00
60170;BME280;46042;49.444;6.862;2022-12-07T06:08:50;98782.88;;;1.14;100.00
60170;BME280;46042;49.444;6.862;2022-12-07T06:11:17;98786.25;;;1.18;100.00
60170;BME280;46042;49.444;6.862;2022-12-07T06:14:02;98779.25;;;1.21;100.00
60170;BME280;46042;49.444;6.862;2022-12-07T06:16:29;98780.00;;;1.25;100.00
60170;BME280;46042;49.444;6.862;2022-12-07T06:18:55;98785.19;;;1.26;100.00
60170;BME280;46042;49.444;6.862;2022-12-07T06:21:22;98789.50;;;1.26;100.00
60170;BME280;46042;49.444;6.862;2022-12-07T06:23:49;98782.66;;;1.23;100.00
60170;BME280;46042;49.444;6.862;2022-12-07T06:26:15;98786.38;;;1.13;100.00
60170;BME280;46042;49.444;6.862;2022-12-07T06:28:42;98782.81;;;1.17;100.00
60170;BME280;46042;49.444;6.862;2022-12-07T06:31:09;98777.63;;;1.17;100.00
60170;BME280;46042;49.444;6.862;2022-12-07T06:33:40;98784.44;;;1.21;100.00
60170;BME280;46042;49.444;6.862;2022-12-07T06:36:07;98778.41;;;1.19;100.00
60170;BME280;46042;49.444;6.862;2022-12-07T06:38:34;98783.50;;;1.24;100.00
60170;BME280;46042;49.444;6.862;2022-12-07T06:41:01;98776.28;;;1.01;100.00
60170;BME280;46042;49.444;6.862;2022-12-07T06:43:27;98782.06;;;1.12;100.00
60170;BME280;46042;49.444;6.862;2022-12-07T06:45:54;98778.56;;;1.15;100.00
60170;BME280;46042;49.444;6.862;2022-12-07T06:48:20;98777.78;;;1.11;100.00
60170;BME280;46042;49.444;6.862;2022-12-07T06:50:48;98781.25;;;1.10;100.00
60170;BME280;46042;49.444;6.862;2022-12-07T06:53:20;98767.41;;;1.11;100.00
60170;BME280;46042;49.444;6.862;2022-12-07T06:55:46;98769.88;;;1.16;100.00
60170;BME280;46042;49.444;6.862;2022-12-07T06:58:13;98773.28;;;1.18;100.00
60170;BME280;46042;49.444;6.862;2022-12-07T07:00:40;98777.66;;;1.16;100.00
60170;BME280;46042;49.444;6.862;2022-12-07T07:03:06;98779.22;;;1.23;100.00
60170;BME280;46042;49.444;6.862;2022-12-07T07:05:33;98777.59;;;1.19;100.00
60170;BME280;46042;49.444;6.862;2022-12-07T07:08:00;98780.16;;;1.20;100.00
60170;BME280;46042;49.444;6.862;2022-12-07T07:10:47;98781.19;;;1.13;100.00
60170;BME280;46042;49.444;6.862;2022-12-07T07:13:13;98785.38;;;1.19;100.00
60170;BME280;46042;49.444;6.862;2022-12-07T07:15:40;98782.78;;;1.19;100.00
60170;BME280;46042;49.444;6.862;2022-12-07T07:18:06;98782.75;;;1.20;100.00
60170;BME280;46042;49.444;6.862;2022-12-07T07:20:33;98787.03;;;1.21;100.00
60170;BME280;46042;49.444;6.862;2022-12-07T07:23:00;98784.47;;;1.20;100.00
60170;BME280;46042;49.444;6.862;2022-12-07T07:25:26;98788.69;;;1.24;100.00
60170;BME280;46042;49.444;6.862;2022-12-07T07:27:53;98786.19;;;1.21;100.00
60170;BME280;46042;49.444;6.862;2022-12-07T07:30:20;98798.25;;;1.23;100.00
60170;BME280;46042;49.444;6.862;2022-12-07T07:32:47;98804.34;;;1.21;100.00
60170;BME280;46042;49.444;6.862;2022-12-07T07:35:13;98802.81;;;1.13;100.00
60170;BME280;46042;49.444;6.862;2022-12-07T07:37:40;98798.34;;;1.19;100.00
60170;BME280;46042;49.444;6.862;2022-12-07T07:40:08;98801.16;;;1.09;100.00
60170;BME280;46042;49.444;6.862;2022-12-07T07:42:35;98799.41;;;1.11;100.00
60170;BME280;46042;49.444;6.862;2022-12-07T07:45:02;98796.84;;;1.10;100.00
60170;BME280;46042;49.444;6.862;2022-12-07T07:47:29;98790.66;;;1.16;100.00
60170;BME280;46042;49.444;6.862;2022-12-07T07:49:55;98798.44;;;1.16;100.00
60170;BME280;46042;49.444;6.862;2022-12-07T07:52:23;98801.03;;;1.16;100.00
60170;BME280;46042;49.444;6.862;2022-12-07T07:54:50;98800.91;;;1.20;100.00
60170;BME280;46042;49.444;6.862;2022-12-07T07:57:17;98797.34;;;1.24;100.00
60170;BME280;46042;49.444;6.862;2022-12-07T07:59:43;98812.03;;;1.25;100.00
60170;BME280;46042;49.444;6.862;2022-12-07T08:02:15;98808.53;;;1.26;100.00
60170;BME280;46042;49.444;6.862;2022-12-07T08:04:42;98806.75;;;1.28;100.00
60170;BME280;46042;49.444;6.862;2022-12-07T08:07:09;98809.19;;;1.35;100.00
60170;BME280;46042;49.444;6.862;2022-12-07T08:09:37;98814.31;;;1.38;100.00
60170;BME280;46042;49.444;6.862;2022-12-07T08:12:04;98814.31;;;1.38;100.00
60170;BME280;46042;49.444;6.862;2022-12-07T08:14:31;98819.44;;;1.39;100.00
60170;BME280;46042;49.444;6.862;2022-12-07T08:16:58;98815.06;;;1.41;100.00
60170;BME280;46042;49.444;6.862;2022-12-07T08:19:24;98821.22;;;1.39;100.00
60170;BME280;46042;49.444;6.862;2022-12-07T08:21:51;98824.53;;;1.44;100.00
60170;BME280;46042;49.444;6.862;2022-12-07T08:24:18;98827.91;;;1.48;100.00
60170;BME280;46042;49.444;6.862;2022-12-07T08:26:44;98829.56;;;1.50;100.00
60170;BME280;46042;49.444;6.862;2022-12-07T08:29:11;98840.69;;;1.55;100.00
60170;BME280;46042;49.444;6.862;2022-12-07T08:31:37;98827.81;;;1.51;100.00
60170;BME280;46042;49.444;6.862;2022-12-07T08:34:04;98828.81;;;1.47;100.00
60170;BME280;46042;49.444;6.862;2022-12-07T08:36:31;98827.31;;;1.36;100.00
60170;BME280;46042;49.444;6.862;2022-12-07T08:38:57;98826.41;;;1.39;100.00
60170;BME280;46042;49.444;6.862;2022-12-07T08:41:44;98827.97;;;1.45;100.00
60170;BME280;46042;49.444;6.862;2022-12-07T08:44:10;98824.34;;;1.50;100.00
60170;BME280;46042;49.444;6.862;2022-12-07T08:46:41;98829.47;;;1.53;100.00
60170;BME280;46042;49.444;6.862;2022-12-07T08:51:40;98830.22;;;1.59;100.00
60170;BME280;46042;49.444;6.862;2022-12-07T08:54:10;98832.94;;;1.54;100.00
60170;BME280;46042;49.444;6.862;2022-12-07T08:56:37;98828.66;;;1.51;100.00
60170;BME280;46042;49.444;6.862;2022-12-07T08:59:05;98821.53;;;1.60;100.00
60170;BME280;46042;49.444;6.862;2022-12-07T09:01:32;98821.06;;;1.77;100.00
60170;BME280;46042;49.444;6.862;2022-12-07T09:03:59;98821.00;;;1.80;100.00
60170;BME280;46042;49.444;6.862;2022-12-07T09:06:26;98826.88;;;1.87;100.00
60170;BME280;46042;49.444;6.862;2022-12-07T09:08:56;98827.13;;;1.77;100.00
60170;BME280;46042;49.444;6.862;2022-12-07T09:11:24;98824.16;;;1.91;100.00
60170;BME280;46042;49.444;6.862;2022-12-07T09:13:54;98821.16;;;2.05;100.00
60170;BME280;46042;49.444;6.862;2022-12-07T09:16:21;98829.00;;;2.04;100.00
60170;BME280;46042;49.444;6.862;2022-12-07T09:18:48;98827.31;;;2.03;100.00
60170;BME280;46042;49.444;6.862;2022-12-07T09:21:15;98828.09;;;2.06;100.00
60170;BME280;46042;49.444;6.862;2022-12-07T09:23:42;98836.50;;;2.15;100.00
60170;BME280;46042;49.444;6.862;2022-12-07T09:26:09;98827.09;;;2.10;100.00
60170;BME280;46042;49.444;6.862;2022-12-07T09:28:37;98829.84;;;2.04;100.00
60170;BME280;46042;49.444;6.862;2022-12-07T09:31:04;98824.06;;;1.94;100.00
60170;BME280;46042;49.444;6.862;2022-12-07T09:33:58;98821.34;;;1.99;100.00
60170;BME280;46042;49.444;6.862;2022-12-07T09:36:26;98822.66;;;2.14;100.00
60170;BME280;46042;49.444;6.862;2022-12-07T09:38:53;98819.03;;;2.20;100.00
60170;BME280;46042;49.444;6.862;2022-12-07T09:41:21;98820.59;;;2.25;100.00
60170;BME280;46042;49.444;6.862;2022-12-07T09:43:49;98813.47;;;2.32;100.00
60170;BME280;46042;49.444;6.862;2022-12-07T09:46:17;98819.53;;;2.33;100.00
60170;BME280;46042;49.444;6.862;2022-12-07T09:48:47;98811.56;;;2.37;100.00
60170;BME280;46042;49.444;6.862;2022-12-07T09:51:23;98808.69;;;2.48;100.00
60170;BME280;46042;49.444;6.862;2022-12-07T09:53:53;98806.13;;;2.47;100.00
60170;BME280;46042;49.444;6.862;2022-12-07T09:56:21;98809.50;;;2.49;100.00
60170;BME280;46042;49.444;6.862;2022-12-07T09:58:49;98806.94;;;2.47;100.00
60170;BME280;46042;49.444;6.862;2022-12-07T10:01:19;98793.69;;;2.56;100.00
60170;BME280;46042;49.444;6.862;2022-12-07T10:03:52;98797.84;;;2.62;100.00
60170;BME280;46042;49.444;6.862;2022-12-07T10:06:19;98794.72;;;2.51;100.00
60170;BME280;46042;49.444;6.862;2022-12-07T10:08:46;98797.94;;;2.59;100.00
60170;BME280;46042;49.444;6.862;2022-12-07T10:11:13;98790.50;;;2.47;100.00
60170;BME280;46042;49.444;6.862;2022-12-07T10:13:47;98789.66;;;2.46;100.00
60170;BME280;46042;49.444;6.862;2022-12-07T10:16:39;98794.25;;;2.38;100.00
60170;BME280;46042;49.444;6.862;2022-12-07T10:22:02;98786.00;;;2.52;100.00
60170;BME280;46042;49.444;6.862;2022-12-07T10:24:29;98779.25;;;2.46;100.00
60170;BME280;46042;49.444;6.862;2022-12-07T10:26:56;98782.41;;;2.56;100.00
60170;BME280;46042;49.444;6.862;2022-12-07T10:29:35;98782.41;;;2.56;100.00
60170;BME280;46042;49.444;6.862;2022-12-07T10:32:32;98770.47;;;2.50;100.00
60170;BME280;46042;49.444;6.862;2022-12-07T10:35:24;98778.03;;;2.58;100.00
60170;BME280;46042;49.444;6.862;2022-12-07T10:37:53;98769.28;;;2.61;100.00
60170;BME280;46042;49.444;6.862;2022-12-07T10:43:01;98763.16;;;2.62;100.00
60170;BME280;46042;49.444;6.862;2022-12-07T10:45:28;98770.25;;;2.58;100.00
60170;BME280;46042;49.444;6.862;2022-12-07T11:10:41;98739.63;;;2.93;100.00
60170;BME280;46042;49.444;6.862;2022-12-07T11:13:20;98736.81;;;2.99;100.00
60170;BME280;46042;49.444;6.862;2022-12-07T11:21:25;98725.00;;;3.16;100.00
60170;BME280;46042;49.444;6.862;2022-12-07T11:27:22;98720.19;;;3.29;100.00
60170;BME280;46042;49.444;6.862;2022-12-07T11:36:11;98725.75;;;3.20;100.00
60170;BME280;46042;49.444;6.862;2022-12-07T11:38:58;98714.47;;;3.19;100.00
60170;BME280;46042;49.444;6.862;2022-12-07T11:41:34;98716.97;;;3.22;100.00
60170;BME280;46042;49.444;6.862;2022-12-07T11:44:05;98710.22;;;3.17;100.00
60170;BME280;46042;49.444;6.862;2022-12-07T11:47:10;98710.28;;;3.15;100.00
60170;BME280;46042;49.444;6.862;2022-12-07T11:52:53;98707.41;;;3.23;100.00
60170;BME280;46042;49.444;6.862;2022-12-07T11:55:42;98702.78;;;3.31;100.00
60170;BME280;46042;49.444;6.862;2022-12-07T12:03:49;98705.81;;;3.44;100.00
60170;BME280;46042;49.444;6.862;2022-12-07T12:06:19;98702.50;;;3.39;100.00
60170;BME280;46042;49.444;6.862;2022-12-07T12:09:02;98701.66;;;3.38;100.00
60170;BME280;46042;49.444;6.862;2022-12-07T12:12:11;98703.53;;;3.35;100.00
60170;BME280;46042;49.444;6.862;2022-12-07T12:23:34;98686.69;;;3.20;100.00
60170;BME280;46042;49.444;6.862;2022-12-07T12:26:03;98687.69;;;3.16;100.00
60170;BME280;46042;49.444;6.862;2022-12-07T12:33:53;98683.91;;;3.24;100.00
60170;BME280;46042;49.444;6.862;2022-12-07T12:39:12;98681.53;;;3.18;100.00
60170;BME280;46042;49.444;6.862;2022-12-07T12:46:52;98673.94;;;3.12;100.00
60170;BME280;46042;49.444;6.862;2022-12-07T12:51:55;98662.41;;;3.19;100.00
60170;BME280;46042;49.444;6.862;2022-12-07T12:54:27;98662.88;;;3.31;100.00
60170;BME280;46042;49.444;6.862;2022-12-07T12:57:15;98665.38;;;3.34;100.00
60170;BME280;46042;49.444;6.862;2022-12-07T13:26:24;98653.13;;;3.12;100.00
60170;BME280;46042;49.444;6.862;2022-12-07T13:29:14;98644.34;;;3.15;100.00
60170;BME280;46042;49.444;6.862;2022-12-07T13:34:37;98635.63;;;3.16;100.00
60170;BME280;46042;49.444;6.862;2022-12-07T13:37:15;98636.72;;;3.10;100.00
60170;BME280;46042;49.444;6.862;2022-12-07T13:39:50;98630.69;;;3.08;100.00
60170;BME280;46042;49.444;6.862;2022-12-07T13:42:27;98628.91;;;3.10;100.00
60170;BME280;46042;49.444;6.862;2022-12-07T13:44:55;98633.41;;;3.05;100.00
60170;BME280;46042;49.444;6.862;2022-12-07T13:49:56;98629.91;;;3.06;100.00
60170;BME280;46042;49.444;6.862;2022-12-07T13:52:28;98628.31;;;3.02;100.00
60170;BME280;46042;49.444;6.862;2022-12-07T13:54:58;98624.81;;;3.03;100.00
60170;BME280;46042;49.444;6.862;2022-12-07T13:57:27;98621.75;;;2.91;100.00
60170;BME280;46042;49.444;6.862;2022-12-07T13:59:55;98622.63;;;2.90;100.00
60170;BME280;46042;49.444;6.862;2022-12-07T14:02:31;98625.16;;;2.93;100.00
60170;BME280;46042;49.444;6.862;2022-12-07T14:05:10;98627.69;;;2.95;100.00
60170;BME280;46042;49.444;6.862;2022-12-07T14:07:49;98617.41;;;2.90;100.00
60170;BME280;46042;49.444;6.862;2022-12-07T14:13:34;98616.09;;;2.78;100.00
60170;BME280;46042;49.444;6.862;2022-12-07T14:16:04;98610.09;;;2.76;100.00
60170;BME280;46042;49.444;6.862;2022-12-07T14:21:06;98616.75;;;2.85;100.00
60170;BME280;46042;49.444;6.862;2022-12-07T14:23:40;98611.38;;;2.90;100.00
60170;BME280;46042;49.444;6.862;2022-12-07T14:26:14;98615.56;;;2.94;100.00
60170;BME280;46042;49.444;6.862;2022-12-07T14:28:42;98611.50;;;2.87;100.00
60170;BME280;46042;49.444;6.862;2022-12-07T14:31:14;98608.00;;;2.88;100.00
60170;BME280;46042;49.444;6.862;2022-12-07T14:33:50;98607.13;;;2.87;100.00
60170;BME280;46042;49.444;6.862;2022-12-07T14:36:17;98601.78;;;2.92;100.00
60170;BME280;46042;49.444;6.862;2022-12-07T14:38:43;98606.50;;;2.80;100.00
60170;BME280;46042;49.444;6.862;2022-12-07T14:41:14;98599.31;;;2.87;100.00
60170;BME280;46042;49.444;6.862;2022-12-07T14:44:00;98599.13;;;2.93;100.00
60170;BME280;46042;49.444;6.862;2022-12-07T14:46:48;98604.22;;;2.96;100.00
60170;BME280;46042;49.444;6.862;2022-12-07T14:49:16;98599.84;;;2.97;100.00
60170;BME280;46042;49.444;6.862;2022-12-07T14:51:59;98599.31;;;2.87;100.00
60170;BME280;46042;49.444;6.862;2022-12-07T14:54:46;98598.50;;;2.87;100.00
60170;BME280;46042;49.444;6.862;2022-12-07T14:57:12;98593.22;;;2.88;100.00
60170;BME280;46042;49.444;6.862;2022-12-07T14:59:39;98599.28;;;2.89;100.00
60170;BME280;46042;49.444;6.862;2022-12-07T15:02:12;98593.41;;;2.83;100.00
60170;BME280;46042;49.444;6.862;2022-12-07T15:04:39;98596.94;;;2.81;100.00
60170;BME280;46042;49.444;6.862;2022-12-07T15:07:10;98597.84;;;2.80;100.00
60170;BME280;46042;49.444;6.862;2022-12-07T15:09:39;98598.69;;;2.80;100.00
60170;BME280;46042;49.444;6.862;2022-12-07T15:12:06;98591.91;;;2.76;100.00
60170;BME280;46042;49.444;6.862;2022-12-07T15:14:33;98596.25;;;2.76;100.00
60170;BME280;46042;49.444;6.862;2022-12-07T15:16:59;98594.66;;;2.72;100.00
60170;BME280;46042;49.444;6.862;2022-12-07T15:19:38;98595.78;;;2.64;100.00
60170;BME280;46042;49.444;6.862;2022-12-07T15:22:04;98599.69;;;2.51;100.00
60170;BME280;46042;49.444;6.862;2022-12-07T15:24:31;98590.28;;;2.47;100.00
60170;BME280;46042;49.444;6.862;2022-12-07T15:26:59;98590.41;;;2.44;100.00
60170;BME280;46042;49.444;6.862;2022-12-07T15:29:26;98591.38;;;2.39;100.00
60170;BME280;46042;49.444;6.862;2022-12-07T15:31:52;98589.91;;;2.32;100.00
60170;BME280;46042;49.444;6.862;2022-12-07T15:34:25;98588.47;;;2.23;100.00
60170;BME280;46042;49.444;6.862;2022-12-07T15:36:53;98585.03;;;2.23;100.00
60170;BME280;46042;49.444;6.862;2022-12-07T15:39:19;98590.25;;;2.21;100.00
60170;BME280;46042;49.444;6.862;2022-12-07T15:41:46;98583.41;;;2.19;100.00
60170;BME280;46042;49.444;6.862;2022-12-07T15:44:13;98593.97;;;2.14;100.00